Щебекино

СКИДКИ НА СМАРТФОНЫ!

Карта отелей и гостиниц, располагающихся рядом с аэропортом Щебекино :

Щебекино Белгородская область 50° 23' 5.1" N, 36° 49' 13.08" E
Код аэродрома ИКАО
H845
Код аэродрома RU
Х845
Координаты
N50.38475° E036.82030°
Превышение над уровнем моря
106
Основная полоса
Курс магнитный
Длина основной ВПП
Ширина основной ВПП
Покрытие основной ВПП
Освещение ВПП
Тип: 
Вертодром
Класс аэродрома: 
Принадлежность: 
АОН
Статус: 
Недействующий
Сайт: 
E-mail аэродрома: 
Страна: 
Россия
Регион: 
Белгородская область
Город: 
Дополнительная информация: 

Скидки на навигаторы!

Найти трансфер

С помощью этой формы Вы можете найти трансфер из аэропорта Щебекино в город, аэропорт или вокзал:

Погода в аэропортах:

Авиационная погода в Жезказгане

Регион: 
Погода METAR: 
UAKD 070500Z 06004MPS 9999 -SN SCT005 BKN019 M21/M24 Q1033 NOSIG RMK QBB170 QFE740/0987
Время наблюдения
2022-12-07T05:00:00Z
Температура C
-21.0
Точка росы
-24.0
Направление ветра
60
Скорость ветра (узлы)
8
Метео видимость
6.21
Облачность
SCT
BKN
Нижняя граница облачности (футы)
500
1900
Явления погоды
-SN
Условия полета
MVFR
Аэропорт подробнее: 
SCT – разбросанная отдельная облачность; BKN – значительная (рассеянная, разорванная) облачность;
-SN – слабый снег;

Авиационная погода в Могилёве

Регион: 
Погода METAR: 
UMOO 071200Z 12008G11MPS 1100 R13/1100 SN DRSN OVC013 M06/M08 Q1012 TEMPO BKN003
Время наблюдения
2022-12-07T12:00:00Z
Температура C
-6.0
Точка росы
-8.0
Направление ветра
120
Скорость ветра (узлы)
16
Метео видимость
0.68
Облачность
OVC
Нижняя граница облачности (футы)
1300
Явления погоды
DRSN SN
Условия полета
LIFR
Аэропорт подробнее: 
OVC – сплошная облачность;
DRSN – снежный позёмок;

Авиационная погода в Усть-Каменогорске

Регион: 
Погода METAR: 
UASK 070500Z 27001MPS 1500 R30/1500 -SN BR BCFG BKN030 M25/M28 Q1039 TEMPO 0200 FZFG BKN002 RMK QFE753/1005
Время наблюдения
2022-12-07T05:00:00Z
Температура C
-25.0
Точка росы
-28.0
Направление ветра
270
Скорость ветра (узлы)
2
Метео видимость
0.93
Облачность
BKN
Нижняя граница облачности (футы)
3000
Явления погоды
BCFG -SN BR
Условия полета
LIFR
Аэропорт подробнее: 
BKN – значительная (рассеянная, разорванная) облачность;
FG – туман (небо не видно, температура воздуха выше нуля или ноль); -SN – слабый снег; BR – дымка (видимость от 1 до 9 км);

Авиационная погода в Вадсё

Регион: 
Погода METAR: 
ENVD 072050Z VRB01KT 8000 -SN FEW004 SCT014 OVC020 M01/M01 Q1010
Время наблюдения
2022-12-07T20:50:00Z
Температура C
-1.0
Точка росы
-1.0
Направление ветра
0
Скорость ветра (узлы)
1
Метео видимость
4.97
Облачность
FEW
SCT
OVC
Нижняя граница облачности (футы)
400
1400
2000
Явления погоды
-SN
Условия полета
MVFR
FEW – незначительная облачность; SCT – разбросанная отдельная облачность; OVC – сплошная облачность;
-SN – слабый снег;